Baler Radar Site, Philippines
Current Conditions -  °F | °C
As of 9:00 PM on Thursday 30 Oct 2014 (Local Time) from RPLC Reporting Station
Broken Clouds Broken Clouds  
Wind Chill: 79°   Ceiling: 30000
Heat Index: 81°   Visibility: 6mi
Dew Point: 70°   Wind: 6mph
Humidity: 74%   Direction: 310°NW
Pressure: 29.91"   Gusts: NA
Location:  15.75°N, 121.63°E
Report Text: RPLC 301300Z 31005KT 9999 FEW042 BKN300 26/21 Q1013 RMK NOSIG A2990
Loading
Personal Weather Stations






























Interactive Weather Map
Tropical Storm Tracking
New forecast layout! Learn more

10-Day Weather Forecast

Advertisements
Track Severe Weather on mobile